FYWH/WDH METAR and TAF weather

Enter ICAO airport designator
Station Type Date Time Source
FYWH METAR 2019/10/19 06:00 UTC NOAA

FYWH 190600Z 00000KT CAVOK 21/04 Q1024 NOSIG


Station Type Date Time Source
FYWH Decoded METAR 2019/10/19 06:00 UTC NOAA

J. G. Strijdom, Namibia (FYWH) 22-29S 017-28E 1700M
Oct 19, 2019 - 02:00 AM EDT / 2019.10.19 0600 UTC
Wind: Calm:0
Visibility: greater than 7 mile(s):0
Temperature: 69 F (21 C)
Dew Point: 39 F (4 C)
Relative Humidity: 32%
Pressure (altimeter): 30.24 in. Hg (1024 hPa)
ob: FYWH 190600Z 00000KT CAVOK 21/04 Q1024 NOSIG
cycle: 6

Station Type Date Time Source
FYWH TAF 2019/10/19 06:39 UTC NOAA

TAF FYWH 190400Z 1906/2006 00000KT CAVOK
BECMG 1909/1911 07010KT
BECMG 1913/1915 9999 SCT050
BECMG 1919/1921 18006KT CAVOK

Example: see airport list